createdAt,value
2022-07-31T00:00:43.018Z,70.63
2022-07-31T00:01:45.082Z,71.15
2022-07-31T00:02:46.982Z,71.20
2022-07-31T00:03:48.632Z,71.32
2022-07-31T00:04:50.335Z,72.45
2022-07-31T00:05:51.962Z,72.40
2022-07-31T00:06:53.667Z,71.85
2022-07-31T00:07:55.413Z,72.47
2022-07-31T00:08:56.926Z,72.39
2022-07-31T00:09:58.485Z,72.15
2022-07-31T00:11:00.113Z,72.24
2022-07-31T00:12:01.736Z,72.91
2022-07-31T00:13:03.787Z,73.43
2022-07-31T00:14:05.466Z,73.17
2022-07-31T00:15:09.957Z,73.05
2022-07-31T00:16:11.521Z,72.19
2022-07-31T00:17:13.125Z,71.44
2022-07-31T00:18:14.730Z,71.09
2022-07-31T00:19:17.499Z,71.57
2022-07-31T00:20:19.100Z,72.25
2022-07-31T00:21:20.922Z,72.86
2022-07-31T00:22:22.509Z,73.02
2022-07-31T00:23:24.128Z,73.49
2022-07-31T00:24:26.938Z,74.71
2022-07-31T00:25:32.079Z,73.17
2022-07-31T00:26:33.688Z,73.03
2022-07-31T00:27:35.443Z,73.19
2022-07-31T00:28:37.600Z,73.30
2022-07-31T00:29:39.623Z,74.43
2022-07-31T00:30:41.123Z,75.70
2022-07-31T00:31:42.698Z,75.62
2022-07-31T00:32:45.275Z,76.65
2022-07-31T00:33:46.919Z,75.73
2022-07-31T00:34:48.548Z,76.55
2022-07-31T00:35:50.231Z,75.40
2022-07-31T00:36:51.826Z,76.07
2022-07-31T00:38:02.216Z,76.15
2022-07-31T00:39:15.331Z,76.43
2022-07-31T00:40:17.607Z,75.89
2022-07-31T00:41:19.383Z,75.88
2022-07-31T00:42:25.601Z,76.97
2022-07-31T00:43:30.000Z,76.50
2022-07-31T00:44:32.577Z,76.30
2022-07-31T00:45:34.138Z,77.13
2022-07-31T00:46:40.285Z,77.14
2022-07-31T00:47:42.545Z,77.40
2022-07-31T00:48:44.178Z,77.22
2022-07-31T00:49:46.189Z,77.00
2022-07-31T00:50:47.749Z,77.31
2022-07-31T00:51:49.368Z,76.94
2022-07-31T00:52:51.598Z,78.58
2022-07-31T00:53:53.362Z,78.98
2022-07-31T00:54:54.948Z,78.07
2022-07-31T00:55:57.394Z,78.45
2022-07-31T00:56:58.954Z,78.70
2022-07-31T00:58:02.369Z,78.62
2022-07-31T00:59:04.906Z,79.36
2022-07-31T01:00:07.114Z,79.47
2022-07-31T01:01:08.731Z,80.13
2022-07-31T01:02:10.629Z,79.76
2022-07-31T01:03:12.227Z,79.61
2022-07-31T01:04:16.337Z,80.00
2022-07-31T01:05:20.970Z,79.61
2022-07-31T01:06:22.985Z,79.00
2022-07-31T01:07:24.516Z,78.54
2022-07-31T01:08:26.079Z,77.97
2022-07-31T01:09:27.607Z,78.37
2022-07-31T01:10:43.263Z,77.92
2022-07-31T01:11:49.109Z,77.95
2022-07-31T01:12:56.623Z,77.79
2022-07-31T01:14:01.605Z,76.44
2022-07-31T01:15:07.166Z,76.58
2022-07-31T01:16:11.100Z,76.41
2022-07-31T01:17:13.791Z,76.29
2022-07-31T01:18:17.363Z,76.42
2022-07-31T01:19:38.114Z,76.82
2022-07-31T01:20:48.222Z,76.16
2022-07-31T01:21:58.326Z,77.20
2022-07-31T01:22:59.838Z,76.33
2022-07-31T01:24:08.495Z,76.11
2022-07-31T01:25:25.805Z,76.84
2022-07-31T01:26:42.276Z,77.09
2022-07-31T01:28:02.244Z,77.01
2022-07-31T01:29:10.120Z,76.58
2022-07-31T01:30:11.948Z,76.37
2022-07-31T01:31:27.048Z,76.86
2022-07-31T01:32:43.041Z,77.22
2022-07-31T01:33:53.848Z,76.12
2022-07-31T01:35:06.571Z,75.89
2022-07-31T01:36:16.280Z,76.70
2022-07-31T01:37:27.598Z,76.76
2022-07-31T01:38:42.495Z,76.82
2022-07-31T01:39:54.643Z,77.41
2022-07-31T01:41:02.584Z,77.68
2022-07-31T01:42:07.612Z,78.10
2022-07-31T01:43:13.876Z,79.14
2022-07-31T01:44:18.252Z,79.80
2022-07-31T01:45:22.323Z,79.50
2022-07-31T01:46:27.965Z,79.50
2022-07-31T01:47:32.472Z,79.70
2022-07-31T01:48:36.405Z,79.71
2022-07-31T01:49:39.849Z,80.15
2022-07-31T01:50:47.662Z,80.10
2022-07-31T01:51:49.779Z,80.96
2022-07-31T01:52:57.457Z,80.40
2022-07-31T01:54:01.570Z,80.31
2022-07-31T01:55:05.175Z,81.19
2022-07-31T01:56:07.560Z,81.16
2022-07-31T01:57:10.804Z,80.49
2022-07-31T01:58:18.964Z,80.66
2022-07-31T01:59:22.814Z,80.74
2022-07-31T02:00:34.558Z,81.14
2022-07-31T02:01:39.083Z,81.32
2022-07-31T02:02:43.228Z,81.22
2022-07-31T02:03:46.387Z,81.58
2022-07-31T02:04:54.285Z,80.78
2022-07-31T02:05:57.520Z,81.77
2022-07-31T02:07:01.273Z,81.11
2022-07-31T02:08:05.951Z,81.18
2022-07-31T02:09:07.748Z,82.03
2022-07-31T02:10:15.595Z,81.44
2022-07-31T02:11:19.248Z,81.63
2022-07-31T02:12:33.534Z,81.73
2022-07-31T02:13:37.441Z,81.85
2022-07-31T02:14:41.893Z,82.23
2022-07-31T02:15:44.992Z,82.22
2022-07-31T02:16:47.295Z,82.64
2022-07-31T02:17:50.534Z,82.43
2022-07-31T02:18:53.932Z,82.14
2022-07-31T02:20:00.088Z,81.81
2022-07-31T02:21:05.127Z,82.03
2022-07-31T02:22:07.405Z,81.30
2022-07-31T02:23:09.139Z,80.83
2022-07-31T02:24:10.991Z,80.95
2022-07-31T02:25:12.690Z,80.97
2022-07-31T02:26:16.160Z,81.31
2022-07-31T02:27:53.771Z,80.90
2022-07-31T02:28:43.643Z,80.77
2022-07-31T02:29:45.592Z,79.98
2022-07-31T02:30:48.824Z,79.75
2022-07-31T02:32:01.998Z,79.67
2022-07-31T02:33:18.861Z,80.24
2022-07-31T02:34:20.533Z,80.82
2022-07-31T02:35:31.729Z,81.58
2022-07-31T02:36:35.011Z,81.56
2022-07-31T02:37:39.854Z,82.46
2022-07-31T02:38:43.501Z,81.56
2022-07-31T02:39:46.323Z,81.78
2022-07-31T02:40:49.317Z,81.84
2022-07-31T02:41:52.720Z,81.90
2022-07-31T02:42:55.594Z,82.20
2022-07-31T02:43:57.927Z,81.44
2022-07-31T02:45:01.819Z,81.53
2022-07-31T02:46:04.616Z,81.65
2022-07-31T02:47:06.549Z,81.52
2022-07-31T02:48:10.380Z,82.38
2022-07-31T02:49:14.036Z,81.70
2022-07-31T02:50:20.519Z,81.88
2022-07-31T02:51:23.425Z,82.45
2022-07-31T02:52:26.442Z,82.93
2022-07-31T02:53:29.593Z,82.19
2022-07-31T02:54:33.903Z,82.07
2022-07-31T02:55:38.345Z,82.18
2022-07-31T02:56:41.387Z,82.68
2022-07-31T02:57:44.545Z,82.56
2022-07-31T02:58:46.186Z,82.79
2022-07-31T02:59:47.887Z,82.56
2022-07-31T03:01:07.499Z,82.81
2022-07-31T03:02:09.154Z,82.74
2022-07-31T03:03:10.784Z,82.57
2022-07-31T03:04:12.354Z,82.83
2022-07-31T03:05:14.008Z,82.05
2022-07-31T03:06:16.703Z,82.39
2022-07-31T03:07:18.452Z,81.51
2022-07-31T03:08:20.114Z,80.09
2022-07-31T03:09:22.037Z,79.63
2022-07-31T03:10:23.741Z,79.52
2022-07-31T03:11:25.449Z,79.40
2022-07-31T03:12:27.251Z,78.99
2022-07-31T03:13:31.400Z,79.07
2022-07-31T03:14:35.171Z,77.69
2022-07-31T03:15:40.272Z,77.94
2022-07-31T03:16:46.506Z,77.79
2022-07-31T03:17:49.107Z,77.35
2022-07-31T03:18:51.671Z,76.75
2022-07-31T03:19:53.852Z,76.81
2022-07-31T03:20:56.797Z,76.65
2022-07-31T03:21:59.348Z,76.89
2022-07-31T03:23:02.160Z,76.76
2022-07-31T03:24:04.727Z,76.94
2022-07-31T03:25:07.925Z,76.95
2022-07-31T03:26:10.723Z,76.92
2022-07-31T03:27:12.379Z,76.89
2022-07-31T03:28:14.140Z,77.52
2022-07-31T03:29:39.267Z,77.00
2022-07-31T03:30:37.686Z,76.25
2022-07-31T03:31:39.295Z,75.86
2022-07-31T03:32:40.834Z,75.86
2022-07-31T03:33:42.755Z,75.54
2022-07-31T03:34:44.305Z,75.08
2022-07-31T03:35:45.949Z,75.54
2022-07-31T03:36:48.775Z,74.49
2022-07-31T03:37:50.640Z,74.50
2022-07-31T03:38:52.290Z,74.64
2022-07-31T03:39:56.963Z,74.78
2022-07-31T03:40:58.483Z,75.02
2022-07-31T03:42:02.315Z,74.84
2022-07-31T03:43:04.850Z,74.99
2022-07-31T03:44:06.689Z,74.80
2022-07-31T03:45:10.924Z,74.65
2022-07-31T03:46:14.905Z,75.30
2022-07-31T03:47:17.040Z,76.26
2022-07-31T03:48:18.744Z,75.03
2022-07-31T03:49:21.737Z,75.74
2022-07-31T03:50:24.519Z,75.76
2022-07-31T03:51:26.341Z,76.23
2022-07-31T03:52:29.119Z,75.47
2022-07-31T03:53:31.465Z,75.08
2022-07-31T03:54:33.113Z,75.72
2022-07-31T03:55:37.883Z,77.23
2022-07-31T03:56:45.067Z,75.91
2022-07-31T03:57:48.393Z,76.08
2022-07-31T03:58:52.388Z,77.28
2022-07-31T03:59:57.737Z,76.80
2022-07-31T04:00:59.721Z,75.81
2022-07-31T04:02:05.440Z,76.58
2022-07-31T04:03:11.148Z,77.38
2022-07-31T04:04:13.553Z,77.48
2022-07-31T04:05:15.290Z,77.67
2022-07-31T04:06:17.090Z,77.15
2022-07-31T04:07:19.451Z,77.06
2022-07-31T04:08:20.977Z,76.79
2022-07-31T04:09:22.568Z,76.17
2022-07-31T04:10:24.211Z,75.48
2022-07-31T04:11:25.766Z,75.18
2022-07-31T04:12:27.307Z,74.50
2022-07-31T04:13:28.886Z,74.57
2022-07-31T04:14:30.623Z,75.02
2022-07-31T04:15:33.102Z,74.73
2022-07-31T04:16:34.719Z,74.87
2022-07-31T04:17:36.251Z,74.65
2022-07-31T04:18:38.091Z,74.01
2022-07-31T04:19:39.850Z,74.14
2022-07-31T04:20:41.387Z,74.91
2022-07-31T04:21:42.976Z,73.52
2022-07-31T04:22:44.869Z,72.68
2022-07-31T04:23:50.769Z,72.45
2022-07-31T04:24:52.361Z,72.46
2022-07-31T04:25:53.955Z,72.10
2022-07-31T04:26:56.258Z,72.75
2022-07-31T04:27:57.831Z,72.96
2022-07-31T04:28:59.534Z,73.41
2022-07-31T04:30:01.177Z,73.67
2022-07-31T04:31:04.662Z,70.26
2022-07-31T04:32:06.701Z,70.22
2022-07-31T04:33:08.544Z,70.54
2022-07-31T04:34:10.177Z,71.31
2022-07-31T04:35:12.013Z,70.29
2022-07-31T04:36:29.567Z,69.95
2022-07-31T04:37:32.902Z,69.65
2022-07-31T04:38:34.409Z,69.84
2022-07-31T04:39:36.652Z,70.39
2022-07-31T04:40:38.541Z,70.84
2022-07-31T04:41:40.179Z,69.95
2022-07-31T04:42:41.712Z,70.47
2022-07-31T04:43:43.318Z,69.78
2022-07-31T04:44:45.239Z,69.76
2022-07-31T04:45:46.854Z,70.04
2022-07-31T04:46:48.937Z,70.00
2022-07-31T04:47:50.544Z,70.18
2022-07-31T04:48:52.163Z,70.25
2022-07-31T04:49:53.769Z,70.05
2022-07-31T04:50:55.364Z,69.63
2022-07-31T04:51:57.430Z,67.79
2022-07-31T04:52:58.988Z,66.73
2022-07-31T04:54:00.558Z,66.98
2022-07-31T04:55:02.260Z,67.83
2022-07-31T04:56:22.370Z,68.45
2022-07-31T04:57:23.936Z,68.24
2022-07-31T04:58:25.504Z,68.44
2022-07-31T05:00:00.599Z,68.69
2022-07-31T05:00:48.611Z,67.59
2022-07-31T05:01:51.439Z,66.06
2022-07-31T05:02:53.190Z,66.04
2022-07-31T05:03:54.786Z,65.05
2022-07-31T05:04:57.329Z,64.14
2022-07-31T05:06:09.627Z,64.03
2022-07-31T05:07:11.775Z,65.20
2022-07-31T05:08:13.337Z,64.95
2022-07-31T05:09:19.038Z,65.34
2022-07-31T05:10:39.880Z,65.15
2022-07-31T05:11:42.106Z,64.09
2022-07-31T05:12:43.635Z,63.79
2022-07-31T05:13:45.614Z,63.36
2022-07-31T05:14:47.154Z,64.67
2022-07-31T05:15:48.686Z,63.21
2022-07-31T05:16:50.516Z,63.97
2022-07-31T05:17:52.114Z,63.63
2022-07-31T05:18:54.311Z,64.23
2022-07-31T05:19:55.816Z,62.20
2022-07-31T05:20:57.382Z,62.78
2022-07-31T05:22:03.532Z,62.60
2022-07-31T05:23:06.555Z,62.69
2022-07-31T05:24:08.558Z,63.02
2022-07-31T05:25:10.123Z,64.51
2022-07-31T05:26:12.575Z,63.77
2022-07-31T05:27:14.323Z,63.31
2022-07-31T05:28:15.895Z,63.52
2022-07-31T05:29:18.456Z,63.88
2022-07-31T05:30:29.899Z,62.52
2022-07-31T05:31:32.219Z,61.36
2022-07-31T05:32:33.799Z,61.17
2022-07-31T05:33:35.985Z,61.13
2022-07-31T05:34:37.580Z,61.27
2022-07-31T05:35:39.150Z,60.30
2022-07-31T05:36:45.026Z,61.20
2022-07-31T05:37:46.579Z,60.47
2022-07-31T05:38:48.164Z,60.22
2022-07-31T05:39:49.773Z,60.68
2022-07-31T05:40:51.308Z,61.28
2022-07-31T05:41:52.980Z,61.51
2022-07-31T05:42:55.260Z,59.84
2022-07-31T05:43:56.833Z,60.45
2022-07-31T05:44:58.397Z,60.53
2022-07-31T05:46:00.023Z,59.48
2022-07-31T05:47:01.560Z,59.55
2022-07-31T05:48:03.531Z,59.93
2022-07-31T05:49:05.223Z,60.23
2022-07-31T05:50:08.170Z,59.17
2022-07-31T05:51:12.035Z,60.56
2022-07-31T05:52:13.599Z,59.73
2022-07-31T05:53:15.445Z,59.06
2022-07-31T05:54:17.615Z,60.09
2022-07-31T05:55:19.342Z,58.97
2022-07-31T05:56:21.380Z,59.37
2022-07-31T05:57:33.349Z,59.13
2022-07-31T05:58:36.226Z,60.36
2022-07-31T05:59:37.895Z,59.81
2022-07-31T06:00:42.054Z,56.89
2022-07-31T06:01:43.691Z,56.25
2022-07-31T06:02:45.537Z,57.33
2022-07-31T06:03:51.836Z,57.55
2022-07-31T06:04:53.897Z,56.36
2022-07-31T06:05:58.286Z,55.62
2022-07-31T06:06:59.834Z,55.72
2022-07-31T06:08:01.799Z,55.64
2022-07-31T06:09:04.709Z,55.25
2022-07-31T06:10:06.949Z,55.15
2022-07-31T06:11:08.509Z,55.74
2022-07-31T06:12:10.074Z,56.49
2022-07-31T06:13:12.236Z,56.16
2022-07-31T06:14:13.770Z,55.50
2022-07-31T06:15:15.736Z,55.62
2022-07-31T06:16:18.000Z,56.44
2022-07-31T06:17:19.601Z,55.89
2022-07-31T06:18:21.737Z,56.30
2022-07-31T06:19:24.747Z,55.56
2022-07-31T06:20:27.073Z,57.65
2022-07-31T06:21:30.762Z,57.05
2022-07-31T06:22:32.793Z,55.29
2022-07-31T06:23:34.402Z,55.05
2022-07-31T06:24:38.394Z,57.17
2022-07-31T06:25:44.119Z,55.97
2022-07-31T06:26:48.089Z,58.13
2022-07-31T06:27:59.227Z,58.07
2022-07-31T06:29:01.627Z,56.45
2022-07-31T06:30:06.930Z,56.77
2022-07-31T06:31:08.532Z,54.86
2022-07-31T06:32:10.214Z,55.82
2022-07-31T06:33:36.694Z,56.11
2022-07-31T06:34:33.408Z,54.83
2022-07-31T06:35:34.991Z,53.39
2022-07-31T06:36:36.602Z,54.65
2022-07-31T06:37:38.259Z,52.05
2022-07-31T06:38:39.886Z,52.24
2022-07-31T06:39:55.738Z,54.98
2022-07-31T06:40:57.745Z,52.21
2022-07-31T06:41:59.418Z,51.49
2022-07-31T06:43:06.303Z,51.51
2022-07-31T06:44:08.621Z,51.47
2022-07-31T06:45:10.671Z,51.91
2022-07-31T06:46:13.723Z,51.92
2022-07-31T06:47:20.731Z,50.76
2022-07-31T06:48:22.414Z,48.93
2022-07-31T06:49:24.239Z,49.31
2022-07-31T06:50:25.945Z,49.25
2022-07-31T06:51:32.008Z,51.00
2022-07-31T06:52:34.072Z,48.03
2022-07-31T06:53:35.661Z,47.96
2022-07-31T06:54:37.357Z,46.83
2022-07-31T06:55:44.509Z,47.17
2022-07-31T06:56:46.473Z,47.27
2022-07-31T06:57:48.154Z,45.34
2022-07-31T06:58:49.868Z,45.42
2022-07-31T06:59:51.428Z,46.19
2022-07-31T07:00:53.310Z,44.40
2022-07-31T07:01:54.978Z,45.50
2022-07-31T07:02:56.612Z,46.01
2022-07-31T07:03:58.410Z,43.61
2022-07-31T07:05:06.676Z,44.16
2022-07-31T07:06:08.547Z,44.69
2022-07-31T07:07:10.240Z,43.43
2022-07-31T07:08:11.823Z,42.44
2022-07-31T07:09:13.545Z,41.93
2022-07-31T07:10:15.116Z,42.43
2022-07-31T07:11:19.560Z,41.38
2022-07-31T07:12:21.224Z,42.88
2022-07-31T07:13:24.166Z,42.75
2022-07-31T07:14:45.686Z,42.12
2022-07-31T07:15:47.528Z,41.10
2022-07-31T07:16:49.076Z,40.36
2022-07-31T07:17:50.593Z,40.85
2022-07-31T07:18:52.137Z,40.19
2022-07-31T07:19:54.933Z,41.16
2022-07-31T07:20:57.843Z,42.87
2022-07-31T07:21:59.684Z,40.73
2022-07-31T07:23:01.263Z,40.45
2022-07-31T07:24:04.116Z,40.07
2022-07-31T07:25:06.125Z,39.96
2022-07-31T07:26:08.307Z,40.69
2022-07-31T07:27:09.887Z,40.86
2022-07-31T07:28:15.218Z,39.58
2022-07-31T07:29:32.980Z,36.72
2022-07-31T07:30:35.457Z,36.63
2022-07-31T07:31:37.524Z,36.46
2022-07-31T07:32:39.136Z,34.41
2022-07-31T07:33:42.765Z,34.23
2022-07-31T07:34:44.737Z,35.52
2022-07-31T07:35:46.446Z,34.34
2022-07-31T07:36:48.084Z,34.73
2022-07-31T07:37:49.804Z,34.75
2022-07-31T07:38:56.102Z,34.77
2022-07-31T07:40:03.749Z,34.10
2022-07-31T07:41:05.698Z,32.61
2022-07-31T07:42:07.540Z,32.73
2022-07-31T07:43:09.402Z,32.08
2022-07-31T07:44:10.961Z,32.05
2022-07-31T07:45:13.970Z,31.55
2022-07-31T07:46:15.754Z,30.54
2022-07-31T07:47:17.870Z,31.21
2022-07-31T07:48:19.495Z,31.07
2022-07-31T07:49:21.752Z,31.03
2022-07-31T07:50:26.759Z,30.37
2022-07-31T07:51:30.855Z,29.63
2022-07-31T07:52:32.411Z,29.92
2022-07-31T07:53:34.072Z,31.16
2022-07-31T07:54:35.623Z,29.87
2022-07-31T07:55:37.703Z,29.96
2022-07-31T07:56:39.534Z,30.64
2022-07-31T07:57:45.305Z,29.84
2022-07-31T07:58:49.121Z,28.85
2022-07-31T07:59:50.734Z,29.97
2022-07-31T08:00:52.455Z,29.03
2022-07-31T08:01:54.241Z,28.72
2022-07-31T08:03:47.647Z,28.88
2022-07-31T08:04:17.673Z,29.05
2022-07-31T08:05:19.439Z,28.20
2022-07-31T08:06:22.609Z,28.44
2022-07-31T08:07:41.661Z,27.73
2022-07-31T08:08:44.043Z,28.39
2022-07-31T08:09:45.906Z,27.93
2022-07-31T08:10:47.665Z,29.18
2022-07-31T08:11:49.671Z,29.22
2022-07-31T08:12:51.244Z,30.58
2022-07-31T08:13:52.923Z,30.85
2022-07-31T08:14:54.618Z,30.13
2022-07-31T08:15:56.269Z,30.10
2022-07-31T08:16:57.940Z,29.63
2022-07-31T08:17:59.498Z,29.07
2022-07-31T08:19:01.068Z,29.19
2022-07-31T08:20:02.939Z,29.00
2022-07-31T08:21:04.599Z,29.17
2022-07-31T08:22:06.511Z,29.27
2022-07-31T08:23:08.442Z,29.26
2022-07-31T08:24:11.408Z,31.03
2022-07-31T08:25:15.201Z,31.47
2022-07-31T08:26:18.248Z,31.98
2022-07-31T08:27:37.971Z,31.97
2022-07-31T08:28:50.181Z,33.81
2022-07-31T08:29:58.358Z,32.89
2022-07-31T08:31:00.044Z,32.77
2022-07-31T08:32:02.042Z,31.61
2022-07-31T08:33:04.111Z,33.52
2022-07-31T08:34:05.758Z,31.23
2022-07-31T08:35:08.120Z,30.06
2022-07-31T08:36:09.754Z,29.97
2022-07-31T08:37:51.816Z,29.76
2022-07-31T08:38:33.222Z,29.93
2022-07-31T08:39:35.579Z,29.90
2022-07-31T08:40:42.747Z,28.82
2022-07-31T08:41:45.939Z,28.96
2022-07-31T08:42:47.761Z,28.64
2022-07-31T08:44:02.700Z,28.19
2022-07-31T08:45:07.962Z,28.89
2022-07-31T08:46:10.740Z,29.00
2022-07-31T08:47:15.016Z,27.64
2022-07-31T08:48:17.285Z,27.94
2022-07-31T08:49:23.344Z,25.53
2022-07-31T08:50:25.503Z,25.58
2022-07-31T08:51:28.144Z,25.78
2022-07-31T08:52:32.293Z,24.21
2022-07-31T08:53:36.717Z,24.49
2022-07-31T08:54:43.445Z,26.11
2022-07-31T08:55:57.070Z,26.86
2022-07-31T08:56:59.643Z,25.64
2022-07-31T08:58:01.314Z,26.84
2022-07-31T08:59:07.227Z,25.96
2022-07-31T09:00:13.128Z,27.37
2022-07-31T09:01:15.296Z,27.32
2022-07-31T09:02:17.013Z,27.97
2022-07-31T09:03:19.285Z,27.52
2022-07-31T09:04:20.887Z,27.27
2022-07-31T09:05:25.084Z,26.91
2022-07-31T09:06:27.410Z,27.60
2022-07-31T09:07:29.166Z,27.75
2022-07-31T09:08:36.005Z,27.02
2022-07-31T09:09:41.111Z,27.33
2022-07-31T09:11:03.423Z,26.68
2022-07-31T09:12:08.078Z,26.08
2022-07-31T09:13:14.978Z,25.25
2022-07-31T09:14:35.626Z,24.96
2022-07-31T09:15:37.665Z,25.20
2022-07-31T09:16:50.362Z,26.57
2022-07-31T09:17:53.950Z,24.85
2022-07-31T09:18:56.201Z,26.65
2022-07-31T09:19:57.839Z,28.20
2022-07-31T09:21:05.565Z,28.51
2022-07-31T09:22:11.055Z,28.33
2022-07-31T09:23:12.870Z,28.56
2022-07-31T09:24:27.730Z,29.28
2022-07-31T09:25:29.463Z,27.71
2022-07-31T09:26:35.023Z,27.00
2022-07-31T09:27:36.718Z,27.57
2022-07-31T09:28:39.286Z,27.70
2022-07-31T09:29:42.865Z,28.76
2022-07-31T09:30:56.118Z,29.23
2022-07-31T09:32:14.414Z,28.42
2022-07-31T09:33:17.555Z,28.28
2022-07-31T09:34:30.871Z,29.06
2022-07-31T09:35:39.800Z,28.22
2022-07-31T09:36:43.230Z,27.93
2022-07-31T09:37:47.515Z,27.99
2022-07-31T09:38:49.207Z,29.61
2022-07-31T09:39:52.027Z,29.16
2022-07-31T09:40:56.943Z,27.64
2022-07-31T09:42:10.467Z,28.32
2022-07-31T09:43:24.436Z,26.97
2022-07-31T09:44:36.030Z,26.58
2022-07-31T09:45:37.726Z,27.50
2022-07-31T09:46:51.402Z,26.03
2022-07-31T09:48:06.953Z,24.77
2022-07-31T09:49:09.545Z,24.67
2022-07-31T09:50:11.801Z,24.62
2022-07-31T09:51:13.380Z,25.08
2022-07-31T09:52:19.748Z,25.25
2022-07-31T09:53:22.147Z,24.34
2022-07-31T09:54:25.930Z,26.11
2022-07-31T09:55:28.634Z,24.82
2022-07-31T09:56:32.356Z,24.70
2022-07-31T09:57:38.113Z,26.27
2022-07-31T09:58:41.530Z,25.58
2022-07-31T09:59:44.103Z,26.23
2022-07-31T10:00:52.809Z,25.01
2022-07-31T10:01:55.494Z,24.84
2022-07-31T10:02:57.675Z,24.39
2022-07-31T10:04:01.504Z,26.19
2022-07-31T10:05:03.326Z,25.08
2022-07-31T10:06:06.897Z,26.46
2022-07-31T10:07:08.727Z,25.76
2022-07-31T10:08:35.982Z,25.76
2022-07-31T10:09:40.871Z,24.49
2022-07-31T10:10:46.606Z,25.09
2022-07-31T10:11:50.606Z,24.94
2022-07-31T10:12:55.218Z,24.76
2022-07-31T10:14:02.274Z,24.83
2022-07-31T10:15:07.191Z,23.89
2022-07-31T10:16:09.854Z,24.37
2022-07-31T10:17:12.930Z,23.50
2022-07-31T10:18:17.785Z,22.03
2022-07-31T10:19:40.908Z,22.29
2022-07-31T10:20:49.222Z,24.21
2022-07-31T10:21:59.736Z,23.82
2022-07-31T10:23:19.798Z,22.44
2022-07-31T10:24:27.879Z,22.97
2022-07-31T10:25:31.044Z,22.65
2022-07-31T10:26:58.674Z,22.28
2022-07-31T10:27:57.266Z,23.82
2022-07-31T10:28:59.341Z,24.72
2022-07-31T10:30:01.579Z,24.02
2022-07-31T10:31:03.857Z,25.52
2022-07-31T10:32:06.675Z,25.24
2022-07-31T10:33:40.839Z,25.09
2022-07-31T10:34:34.826Z,25.36
2022-07-31T10:35:44.586Z,24.07
2022-07-31T10:37:05.690Z,24.73
2022-07-31T10:38:22.720Z,25.01
2022-07-31T10:39:30.112Z,27.03
2022-07-31T10:40:35.890Z,24.36
2022-07-31T10:42:00.399Z,24.32
2022-07-31T10:43:17.333Z,25.29
2022-07-31T10:44:38.204Z,25.71
2022-07-31T10:45:54.012Z,25.88
2022-07-31T10:46:55.630Z,25.18
2022-07-31T10:47:59.777Z,26.70
2022-07-31T10:49:08.562Z,25.32
2022-07-31T10:50:20.835Z,24.25
2022-07-31T10:51:23.331Z,23.30
2022-07-31T10:52:37.185Z,22.68
2022-07-31T10:53:51.490Z,22.25
2022-07-31T10:55:00.113Z,23.70
2022-07-31T10:56:12.945Z,22.41
2022-07-31T10:57:24.986Z,23.00
2022-07-31T10:58:26.824Z,23.13
2022-07-31T10:59:29.217Z,22.04
2022-07-31T11:00:33.558Z,22.65
2022-07-31T11:01:53.370Z,23.22
2022-07-31T11:02:55.308Z,24.49
2022-07-31T11:04:01.698Z,24.21
2022-07-31T11:05:27.846Z,24.14
2022-07-31T11:06:44.639Z,23.43
2022-07-31T11:07:46.481Z,22.75
2022-07-31T11:08:53.892Z,23.12
2022-07-31T11:09:55.531Z,23.65
2022-07-31T11:11:00.783Z,23.55
2022-07-31T11:12:17.600Z,25.75
2022-07-31T11:13:20.880Z,27.20
2022-07-31T11:14:35.496Z,26.97
2022-07-31T11:15:39.754Z,28.88
2022-07-31T11:16:55.597Z,29.01
2022-07-31T11:18:21.123Z,29.38
2022-07-31T11:19:19.190Z,30.78
2022-07-31T11:20:26.234Z,30.57
2022-07-31T11:21:40.271Z,30.54
2022-07-31T11:22:42.965Z,30.58
2022-07-31T11:23:55.893Z,30.69
2022-07-31T11:25:05.005Z,30.62
2022-07-31T11:26:07.937Z,29.12
2022-07-31T11:27:09.598Z,29.75
2022-07-31T11:28:12.588Z,26.80
2022-07-31T11:29:59.753Z,28.37
2022-07-31T11:30:57.417Z,27.53
2022-07-31T11:32:24.737Z,26.18
2022-07-31T11:33:46.790Z,27.22
2022-07-31T11:34:53.938Z,25.44
2022-07-31T11:35:57.270Z,25.70
2022-07-31T11:36:58.884Z,25.68
2022-07-31T11:38:01.298Z,25.04
2022-07-31T11:39:03.698Z,25.46
2022-07-31T11:40:07.860Z,26.55
2022-07-31T11:41:10.140Z,26.45
2022-07-31T11:42:11.771Z,26.95
2022-07-31T11:43:29.259Z,29.22
2022-07-31T11:44:30.792Z,28.56
2022-07-31T11:45:33.524Z,27.74
2022-07-31T11:46:37.934Z,27.33
2022-07-31T11:48:11.169Z,27.70
2022-07-31T11:49:06.069Z,26.80
2022-07-31T11:50:10.384Z,26.55
2022-07-31T11:51:18.313Z,26.43
2022-07-31T11:52:30.840Z,25.65
2022-07-31T11:53:42.322Z,26.00
2022-07-31T11:54:44.020Z,27.49
2022-07-31T11:55:54.009Z,29.05
2022-07-31T11:56:56.023Z,27.73
2022-07-31T11:57:57.745Z,28.61
2022-07-31T11:58:59.401Z,28.73
2022-07-31T12:00:29.369Z,28.57
2022-07-31T12:01:31.108Z,28.51
2022-07-31T12:02:33.125Z,27.52
2022-07-31T12:03:39.097Z,26.11
2022-07-31T12:04:40.894Z,26.63
2022-07-31T12:05:48.134Z,26.99
2022-07-31T12:06:56.140Z,27.72
2022-07-31T12:07:58.209Z,26.38
2022-07-31T12:09:00.034Z,27.75
2022-07-31T12:10:03.666Z,26.98
2022-07-31T12:11:08.109Z,26.69
2022-07-31T12:12:11.764Z,26.01
2022-07-31T12:13:16.441Z,25.36
2022-07-31T12:14:47.343Z,24.69
2022-07-31T12:16:11.199Z,25.22
2022-07-31T12:17:20.500Z,26.38
2022-07-31T12:18:22.873Z,28.50
2022-07-31T12:19:30.291Z,26.66
2022-07-31T12:20:38.957Z,26.62
2022-07-31T12:21:40.736Z,27.88
2022-07-31T12:22:42.309Z,26.90
2022-07-31T12:23:51.306Z,26.72
2022-07-31T12:25:00.856Z,27.35
2022-07-31T12:26:02.679Z,26.27
2022-07-31T12:27:04.655Z,26.44
2022-07-31T12:28:08.880Z,26.68
2022-07-31T12:29:12.691Z,26.20
2022-07-31T12:30:16.683Z,25.57
2022-07-31T12:31:18.368Z,25.73
2022-07-31T12:32:27.819Z,25.14
2022-07-31T12:33:40.752Z,26.00
2022-07-31T12:34:43.300Z,25.61
2022-07-31T12:35:56.439Z,25.86
2022-07-31T12:37:04.608Z,25.40
2022-07-31T12:38:24.019Z,25.83
2022-07-31T12:39:47.598Z,24.51
2022-07-31T12:41:03.410Z,25.63
2022-07-31T12:42:06.277Z,25.13
2022-07-31T12:43:07.823Z,25.22
2022-07-31T12:44:14.368Z,25.03
2022-07-31T12:45:20.137Z,23.50
2022-07-31T12:46:34.916Z,23.34
2022-07-31T12:47:36.510Z,24.04
2022-07-31T12:48:41.133Z,24.09
2022-07-31T12:49:45.922Z,23.14
2022-07-31T12:50:47.591Z,23.81
2022-07-31T12:51:49.233Z,21.91
2022-07-31T12:52:51.340Z,23.00
2022-07-31T12:53:52.892Z,22.90
2022-07-31T12:54:54.533Z,23.58
2022-07-31T12:55:57.040Z,24.17
2022-07-31T12:56:58.621Z,24.53
2022-07-31T12:58:00.358Z,24.57
2022-07-31T12:59:02.391Z,24.77
2022-07-31T13:00:06.017Z,25.67
2022-07-31T13:01:07.687Z,25.74
2022-07-31T13:02:09.621Z,25.69
2022-07-31T13:03:11.204Z,24.67
2022-07-31T13:04:18.917Z,24.15
2022-07-31T13:05:22.355Z,23.34
2022-07-31T13:06:26.415Z,23.63
2022-07-31T13:07:28.159Z,23.25
2022-07-31T13:08:29.844Z,23.77
2022-07-31T13:09:35.097Z,24.24
2022-07-31T13:10:36.774Z,23.14
2022-07-31T13:11:46.821Z,24.42
2022-07-31T13:12:52.956Z,23.60
2022-07-31T13:13:56.817Z,24.45
2022-07-31T13:14:58.456Z,24.40
2022-07-31T13:16:00.177Z,24.33
2022-07-31T13:17:02.145Z,25.45
2022-07-31T13:18:05.087Z,25.37
2022-07-31T13:19:07.988Z,24.59
2022-07-31T13:20:10.107Z,26.14
2022-07-31T13:21:18.255Z,25.42
2022-07-31T13:22:19.848Z,25.17
2022-07-31T13:23:21.619Z,26.23
2022-07-31T13:24:23.157Z,27.17
2022-07-31T13:25:26.561Z,25.00
2022-07-31T13:26:29.061Z,24.71
2022-07-31T13:27:30.661Z,25.37
2022-07-31T13:28:32.270Z,24.68
2022-07-31T13:29:33.935Z,25.44
2022-07-31T13:30:35.499Z,24.06
2022-07-31T13:31:37.106Z,24.40
2022-07-31T13:32:38.638Z,25.09
2022-07-31T13:33:40.275Z,24.72
2022-07-31T13:34:42.035Z,24.78
2022-07-31T13:35:43.773Z,25.53
2022-07-31T13:36:45.362Z,24.38
2022-07-31T13:37:48.008Z,24.83
2022-07-31T13:38:50.615Z,24.55
2022-07-31T13:39:52.252Z,23.54
2022-07-31T13:41:12.471Z,24.43
2022-07-31T13:42:14.029Z,23.33
2022-07-31T13:43:17.183Z,23.85
2022-07-31T13:44:18.832Z,23.75
2022-07-31T13:45:20.405Z,24.71
2022-07-31T13:46:23.327Z,24.61
2022-07-31T13:47:25.013Z,24.36
2022-07-31T13:48:26.622Z,25.33
2022-07-31T13:49:32.118Z,25.87
2022-07-31T13:50:33.877Z,25.00
2022-07-31T13:51:37.194Z,24.69
2022-07-31T13:52:38.737Z,24.92
2022-07-31T13:53:43.892Z,25.03
2022-07-31T13:54:45.430Z,24.66